createdAt,value
2022-11-20T00:02:24.960Z,0.40
2022-11-20T00:04:52.755Z,0.40
2022-11-20T00:07:20.946Z,0.40
2022-11-20T00:09:51.773Z,0.40
2022-11-20T00:12:20.601Z,0.40
2022-11-20T00:14:49.797Z,0.44
2022-11-20T00:17:17.546Z,0.40
2022-11-20T00:19:45.364Z,0.40
2022-11-20T00:22:15.423Z,0.40
2022-11-20T00:24:44.856Z,0.40
2022-11-20T00:27:12.715Z,0.40
2022-11-20T00:29:40.464Z,0.34
2022-11-20T00:32:09.723Z,0.30
2022-11-20T00:34:39.147Z,0.30
2022-11-20T00:37:07.627Z,0.26
2022-11-20T00:39:38.481Z,0.28
2022-11-20T00:42:07.115Z,0.30
2022-11-20T00:44:36.444Z,0.30
2022-11-20T00:47:12.491Z,0.30
2022-11-20T00:49:41.876Z,0.30
2022-11-20T00:52:11.646Z,0.32
2022-11-20T00:54:40.003Z,0.38
2022-11-20T00:57:07.728Z,0.34
2022-11-20T00:59:36.190Z,0.32
2022-11-20T01:02:05.659Z,0.30
2022-11-20T01:04:34.045Z,0.30
2022-11-20T01:07:01.900Z,0.30
2022-11-20T01:09:29.777Z,0.30
2022-11-20T01:11:59.010Z,0.32
2022-11-20T01:14:27.268Z,0.40
2022-11-20T01:16:57.920Z,0.40
2022-11-20T01:19:26.007Z,0.40
2022-11-20T01:21:55.976Z,0.40
2022-11-20T01:24:26.307Z,0.40
2022-11-20T01:26:55.310Z,0.40
2022-11-20T01:29:27.674Z,0.40
2022-11-20T01:31:58.038Z,0.40
2022-11-20T01:34:26.980Z,0.40
2022-11-20T01:36:55.222Z,0.40
2022-11-20T01:39:27.658Z,0.40
2022-11-20T01:42:15.998Z,0.50
2022-11-20T01:45:04.167Z,0.60
2022-11-20T01:47:47.425Z,0.60
2022-11-20T01:50:27.295Z,0.60
2022-11-20T01:53:08.535Z,0.70
2022-11-20T01:55:45.518Z,0.60
2022-11-20T01:58:17.147Z,0.60
2022-11-20T02:00:44.997Z,0.60
2022-11-20T02:03:18.996Z,0.60
2022-11-20T02:06:36.019Z,0.60
2022-11-20T02:09:04.514Z,0.60
2022-11-20T02:11:33.054Z,0.60
2022-11-20T02:14:01.683Z,0.60
2022-11-20T02:16:41.528Z,0.60
2022-11-20T02:19:27.581Z,0.60
2022-11-20T02:22:26.392Z,0.60
2022-11-20T02:24:54.190Z,0.60
2022-11-20T02:27:26.554Z,0.60
2022-11-20T02:30:04.305Z,0.60
2022-11-20T02:32:37.047Z,0.60
2022-11-20T02:35:25.051Z,0.60
2022-11-20T02:37:57.366Z,0.60
2022-11-20T02:40:26.161Z,0.60
2022-11-20T02:42:58.434Z,0.60
2022-11-20T02:45:28.396Z,0.64
2022-11-20T02:47:56.959Z,0.60
2022-11-20T02:50:25.262Z,0.54
2022-11-20T02:53:02.151Z,0.50
2022-11-20T02:55:30.587Z,0.50
2022-11-20T02:57:58.604Z,0.50
2022-11-20T03:00:28.261Z,0.50
2022-11-20T03:02:56.330Z,0.50
2022-11-20T03:05:24.161Z,0.50
2022-11-20T03:07:54.833Z,0.50
2022-11-20T03:10:22.583Z,0.50
2022-11-20T03:13:00.684Z,0.50
2022-11-20T03:15:28.598Z,0.54
2022-11-20T03:17:58.588Z,0.50
2022-11-20T03:20:28.232Z,0.50
2022-11-20T03:22:57.092Z,0.50
2022-11-20T03:25:27.189Z,0.50
2022-11-20T03:27:57.401Z,0.50
2022-11-20T03:30:30.593Z,0.50
2022-11-20T03:32:59.954Z,0.50
2022-11-20T03:35:27.780Z,0.40
2022-11-20T03:37:58.928Z,0.42
2022-11-20T03:40:27.092Z,0.50
2022-11-20T03:42:55.602Z,0.50
2022-11-20T03:45:23.644Z,0.50
2022-11-20T03:47:53.263Z,0.50
2022-11-20T03:50:21.224Z,0.50
2022-11-20T03:52:51.568Z,0.50
2022-11-20T03:55:21.672Z,0.52
2022-11-20T03:57:49.722Z,0.58
2022-11-20T04:00:17.731Z,0.60
2022-11-20T04:02:49.784Z,0.60
2022-11-20T04:05:18.096Z,0.66
2022-11-20T04:07:47.318Z,0.70
2022-11-20T04:10:15.510Z,0.70
2022-11-20T04:12:45.616Z,0.70
2022-11-20T04:15:14.119Z,0.70
2022-11-20T04:17:43.626Z,0.66
2022-11-20T04:20:13.203Z,0.60
2022-11-20T04:22:41.498Z,0.60
2022-11-20T04:25:11.774Z,0.50
2022-11-20T04:27:40.621Z,0.50
2022-11-20T04:30:09.414Z,0.50
2022-11-20T04:32:37.670Z,0.50
2022-11-20T04:35:12.359Z,0.40
2022-11-20T04:37:40.344Z,0.40
2022-11-20T04:40:12.523Z,0.46
2022-11-20T04:42:40.891Z,0.42
2022-11-20T04:45:09.841Z,0.40
2022-11-20T04:47:42.576Z,0.40
2022-11-20T04:50:10.543Z,0.40
2022-11-20T04:52:42.004Z,0.40
2022-11-20T04:55:12.007Z,0.40
2022-11-20T04:57:40.363Z,0.40
2022-11-20T05:00:09.552Z,0.40
2022-11-20T05:02:43.509Z,0.50
2022-11-20T05:05:12.747Z,0.50
2022-11-20T05:07:41.249Z,0.50
2022-11-20T05:10:09.823Z,0.50
2022-11-20T05:12:38.444Z,0.46
2022-11-20T05:15:09.568Z,0.40
2022-11-20T05:17:39.342Z,0.40
2022-11-20T05:20:11.503Z,0.40
2022-11-20T05:22:40.115Z,0.40
2022-11-20T05:25:09.842Z,0.40
2022-11-20T05:27:38.288Z,0.40
2022-11-20T05:30:12.420Z,0.40
2022-11-20T05:32:41.100Z,0.40
2022-11-20T05:35:09.675Z,0.40
2022-11-20T05:37:38.940Z,0.40
2022-11-20T05:40:11.908Z,0.40
2022-11-20T05:42:41.256Z,0.30
2022-11-20T05:45:09.959Z,0.30
2022-11-20T05:47:38.773Z,0.32
2022-11-20T05:50:08.929Z,0.40
2022-11-20T05:52:38.854Z,0.38
2022-11-20T05:55:09.207Z,0.40
2022-11-20T05:57:37.476Z,0.40
2022-11-20T06:00:06.769Z,0.38
2022-11-20T06:02:38.312Z,0.40
2022-11-20T06:05:09.561Z,0.40
2022-11-20T06:07:39.308Z,0.50
2022-11-20T06:10:15.062Z,0.50
2022-11-20T06:12:47.304Z,0.50
2022-11-20T06:15:17.570Z,0.46
2022-11-20T06:17:48.094Z,0.50
2022-11-20T06:20:16.658Z,0.50
2022-11-20T06:22:45.405Z,0.50
2022-11-20T06:25:14.950Z,0.44
2022-11-20T06:27:43.223Z,0.50
2022-11-20T06:30:13.443Z,0.40
2022-11-20T06:32:42.074Z,0.40
2022-11-20T06:35:17.382Z,0.40
2022-11-20T06:37:50.546Z,0.40
2022-11-20T06:40:20.829Z,0.40
2022-11-20T06:42:48.896Z,0.40
2022-11-20T06:45:26.006Z,0.40
2022-11-20T06:47:54.045Z,0.34
2022-11-20T06:50:22.527Z,0.40
2022-11-20T06:52:50.686Z,0.40
2022-11-20T06:55:20.178Z,0.44
2022-11-20T06:57:51.962Z,0.42
2022-11-20T07:00:22.871Z,0.50
2022-11-20T07:02:51.030Z,0.50
2022-11-20T07:05:22.758Z,0.50
2022-11-20T07:07:52.499Z,0.40
2022-11-20T07:10:20.805Z,0.40
2022-11-20T07:12:54.601Z,0.40
2022-11-20T07:15:25.194Z,0.40
2022-11-20T07:17:56.175Z,0.38
2022-11-20T07:20:30.561Z,0.40
2022-11-20T07:23:01.106Z,0.40
2022-11-20T07:25:30.607Z,0.40
2022-11-20T07:28:01.867Z,0.40
2022-11-20T07:30:33.347Z,0.38
2022-11-20T07:33:01.209Z,0.40
2022-11-20T07:35:30.364Z,0.36
2022-11-20T07:37:58.526Z,0.30
2022-11-20T07:40:29.031Z,0.32
2022-11-20T07:42:57.320Z,0.30
2022-11-20T07:45:27.184Z,0.30
2022-11-20T07:47:56.562Z,0.30
2022-11-20T07:50:24.629Z,0.40
2022-11-20T07:52:53.465Z,0.40
2022-11-20T07:55:23.541Z,0.40
2022-11-20T07:57:59.574Z,0.40
2022-11-20T08:00:29.218Z,0.40
2022-11-20T08:03:00.252Z,0.40
2022-11-20T08:05:28.877Z,0.40
2022-11-20T08:08:09.923Z,0.32
2022-11-20T08:10:38.277Z,0.36
2022-11-20T08:13:29.443Z,0.38
2022-11-20T08:16:00.986Z,0.38
2022-11-20T08:18:32.653Z,0.36
2022-11-20T08:21:07.116Z,0.34
2022-11-20T08:23:49.635Z,0.40
2022-11-20T08:26:30.418Z,0.40
2022-11-20T08:29:01.493Z,0.40
2022-11-20T08:31:37.667Z,0.40
2022-11-20T08:34:26.063Z,0.40
2022-11-20T08:36:54.750Z,0.40
2022-11-20T08:39:31.018Z,0.50
2022-11-20T08:42:12.476Z,0.52
2022-11-20T08:44:44.466Z,0.60
2022-11-20T08:47:16.612Z,0.60
2022-11-20T08:49:47.345Z,0.60
2022-11-20T08:52:15.676Z,0.60
2022-11-20T08:54:45.393Z,0.60
2022-11-20T08:57:14.279Z,0.60
2022-11-20T09:00:05.206Z,0.64
2022-11-20T09:02:33.404Z,0.70
2022-11-20T09:05:09.641Z,0.70
2022-11-20T09:07:39.306Z,0.70
2022-11-20T09:10:23.575Z,0.70
2022-11-20T09:12:59.614Z,0.70
2022-11-20T09:15:32.575Z,0.70
2022-11-20T09:18:07.134Z,0.70
2022-11-20T09:20:36.735Z,0.70
2022-11-20T09:23:05.198Z,0.70
2022-11-20T09:25:40.699Z,0.70
2022-11-20T09:28:10.944Z,0.70
2022-11-20T09:30:41.515Z,0.80
2022-11-20T09:33:11.166Z,0.80
2022-11-20T09:35:41.841Z,0.80
2022-11-20T09:38:12.256Z,0.80
2022-11-20T09:41:06.388Z,0.80
2022-11-20T09:44:31.123Z,0.80
2022-11-20T09:47:28.568Z,0.82
2022-11-20T09:50:33.730Z,0.82
2022-11-20T09:53:47.269Z,0.90
2022-11-20T09:56:23.719Z,0.90
2022-11-20T09:59:00.143Z,0.80
2022-11-20T10:01:47.379Z,0.80
2022-11-20T10:04:24.885Z,0.80
2022-11-20T10:07:48.301Z,0.80
2022-11-20T10:14:23.063Z,0.70
2022-11-20T10:17:18.829Z,0.70
2022-11-20T10:20:27.712Z,0.78
2022-11-20T10:23:14.852Z,0.80
2022-11-20T10:26:04.533Z,0.80
2022-11-20T10:29:12.932Z,0.70
2022-11-20T10:31:50.322Z,0.70
2022-11-20T10:34:25.125Z,0.70
2022-11-20T10:37:10.244Z,0.70
2022-11-20T10:40:02.734Z,0.70
2022-11-20T10:43:34.111Z,0.70
2022-11-20T10:46:39.236Z,0.72
2022-11-20T10:53:03.993Z,0.88
2022-11-20T10:56:01.553Z,0.90
2022-11-20T10:59:37.401Z,0.90
2022-11-20T11:02:45.513Z,1.00
2022-11-20T11:05:26.412Z,1.08
2022-11-20T11:08:04.655Z,1.10
2022-11-20T11:10:42.388Z,1.20
2022-11-20T11:13:27.290Z,1.20
2022-11-20T11:15:58.393Z,1.30
2022-11-20T11:18:33.485Z,1.30
2022-11-20T11:21:06.687Z,1.38
2022-11-20T11:23:41.439Z,1.30
2022-11-20T11:26:25.876Z,1.38
2022-11-20T11:28:58.141Z,1.40
2022-11-20T11:31:36.515Z,1.40
2022-11-20T11:34:17.898Z,1.40
2022-11-20T11:37:22.718Z,1.40
2022-11-20T11:40:16.478Z,1.30
2022-11-20T11:43:32.794Z,1.30
2022-11-20T11:46:36.650Z,1.40
2022-11-20T11:49:16.884Z,1.40
2022-11-20T11:52:17.427Z,1.34
2022-11-20T11:54:56.963Z,1.40
2022-11-20T11:58:35.673Z,1.40
2022-11-20T12:01:57.145Z,1.40
2022-11-20T12:05:11.868Z,1.40
2022-11-20T12:07:58.226Z,1.46
2022-11-20T12:10:47.077Z,1.40
2022-11-20T12:14:05.492Z,1.40
2022-11-20T12:16:42.965Z,1.40
2022-11-20T12:19:17.262Z,1.38
2022-11-20T12:22:27.010Z,1.30
2022-11-20T12:25:32.714Z,1.28
2022-11-20T12:28:56.118Z,1.20
2022-11-20T12:32:11.428Z,1.20
2022-11-20T12:35:11.771Z,1.20
2022-11-20T12:37:55.599Z,1.20
2022-11-20T12:41:15.208Z,1.20
2022-11-20T12:45:19.750Z,1.20
2022-11-20T12:48:17.793Z,1.20
2022-11-20T12:51:41.192Z,1.20
2022-11-20T12:54:44.470Z,1.20
2022-11-20T12:58:00.850Z,1.20
2022-11-20T13:00:35.299Z,1.20
2022-11-20T13:03:28.368Z,1.20
2022-11-20T13:06:20.740Z,1.20
2022-11-20T13:11:58.490Z,1.22
2022-11-20T13:15:12.034Z,1.20
2022-11-20T13:18:05.113Z,1.20
2022-11-20T13:20:36.838Z,1.26
2022-11-20T13:23:04.626Z,1.30
2022-11-20T13:25:42.808Z,1.30
2022-11-20T13:28:12.823Z,1.30
2022-11-20T13:30:58.746Z,1.30
2022-11-20T13:33:39.670Z,1.30
2022-11-20T13:36:25.764Z,1.30
2022-11-20T13:38:59.605Z,1.40
2022-11-20T13:41:39.629Z,1.40
2022-11-20T13:44:39.091Z,1.40
2022-11-20T13:47:27.441Z,1.40
2022-11-20T13:50:01.339Z,1.40
2022-11-20T13:53:27.065Z,1.44
2022-11-20T13:56:07.728Z,1.50
2022-11-20T13:59:04.823Z,1.60
2022-11-20T14:01:36.963Z,1.60
2022-11-20T14:04:10.776Z,1.60
2022-11-20T14:06:54.527Z,1.60
2022-11-20T14:09:32.653Z,1.60
2022-11-20T14:12:01.131Z,1.50
2022-11-20T14:14:33.837Z,1.50
2022-11-20T14:17:26.249Z,1.48
2022-11-20T14:19:59.359Z,1.42
2022-11-20T14:22:29.009Z,1.40
2022-11-20T14:25:19.780Z,1.40
2022-11-20T14:27:57.052Z,1.38
2022-11-20T14:30:44.893Z,1.30
2022-11-20T14:33:16.822Z,1.30
2022-11-20T14:35:53.709Z,1.30
2022-11-20T14:38:33.948Z,1.30
2022-11-20T14:41:21.836Z,1.26
2022-11-20T14:43:58.578Z,1.20
2022-11-20T14:46:29.060Z,1.24
2022-11-20T14:49:02.730Z,1.30
2022-11-20T14:51:44.887Z,1.24
2022-11-20T14:54:19.214Z,1.20
2022-11-20T14:57:01.131Z,1.20
2022-11-20T14:59:34.882Z,1.20
2022-11-20T15:02:13.402Z,1.20
2022-11-20T15:05:08.133Z,1.20
2022-11-20T15:07:46.752Z,1.30
2022-11-20T15:10:28.468Z,1.40
2022-11-20T15:13:13.437Z,1.40
2022-11-20T15:15:57.899Z,1.40
2022-11-20T15:18:44.397Z,1.40
2022-11-20T15:21:30.708Z,1.30
2022-11-20T15:24:04.765Z,1.30
2022-11-20T15:26:37.568Z,1.20
2022-11-20T15:29:06.331Z,1.12
2022-11-20T15:31:37.055Z,1.10
2022-11-20T15:34:14.220Z,1.10
2022-11-20T15:36:45.690Z,1.10
2022-11-20T15:39:18.343Z,1.10
2022-11-20T15:41:48.240Z,1.10
2022-11-20T15:44:19.841Z,1.10
2022-11-20T15:46:48.323Z,1.10
2022-11-20T15:49:22.594Z,1.16
2022-11-20T15:51:55.398Z,1.20
2022-11-20T15:54:27.241Z,1.20
2022-11-20T15:56:57.565Z,1.20
2022-11-20T15:59:28.601Z,1.20
2022-11-20T16:02:13.260Z,1.30
2022-11-20T16:04:51.979Z,1.30
2022-11-20T16:07:23.737Z,1.30
2022-11-20T16:09:52.805Z,1.30
2022-11-20T16:12:45.872Z,1.22
2022-11-20T16:15:32.768Z,1.20
2022-11-20T16:18:03.955Z,1.20
2022-11-20T16:20:34.713Z,1.20
2022-11-20T16:23:07.531Z,1.30
2022-11-20T16:25:53.297Z,1.36
2022-11-20T16:28:24.471Z,1.40
2022-11-20T16:30:52.490Z,1.40
2022-11-20T16:33:20.281Z,1.40
2022-11-20T16:35:54.110Z,1.40
2022-11-20T16:38:23.856Z,1.40
2022-11-20T16:41:05.303Z,1.40
2022-11-20T16:43:34.255Z,1.40
2022-11-20T16:46:05.447Z,1.40
2022-11-20T16:48:36.509Z,1.40
2022-11-20T16:51:13.311Z,1.40
2022-11-20T16:53:44.390Z,1.30
2022-11-20T16:56:22.447Z,1.30
2022-11-20T16:59:05.362Z,1.30
2022-11-20T17:01:40.146Z,1.26
2022-11-20T17:04:09.029Z,1.20
2022-11-20T17:06:45.740Z,1.20
2022-11-20T17:09:15.245Z,1.20
2022-11-20T17:11:46.878Z,1.20
2022-11-20T17:14:19.698Z,1.20
2022-11-20T17:16:51.669Z,1.20
2022-11-20T17:19:20.624Z,1.10
2022-11-20T17:21:50.920Z,1.10
2022-11-20T17:24:19.663Z,1.20
2022-11-20T17:26:49.881Z,1.20
2022-11-20T17:29:24.220Z,1.20
2022-11-20T17:31:57.224Z,1.20
2022-11-20T17:34:27.008Z,1.20
2022-11-20T17:37:08.760Z,1.20
2022-11-20T17:39:42.038Z,1.20
2022-11-20T17:45:12.419Z,1.20
2022-11-20T17:47:57.784Z,1.20
2022-11-20T17:50:25.979Z,1.20
2022-11-20T17:52:54.149Z,1.20
2022-11-20T17:55:25.065Z,1.20
2022-11-20T17:57:53.907Z,1.20
2022-11-20T18:00:31.931Z,1.20
2022-11-20T18:03:08.023Z,1.20
2022-11-20T18:05:37.018Z,1.30
2022-11-20T18:08:10.088Z,1.30
2022-11-20T18:10:39.130Z,1.40
2022-11-20T18:13:08.524Z,1.40
2022-11-20T18:15:47.549Z,1.40
2022-11-20T18:18:15.360Z,1.40
2022-11-20T18:20:43.237Z,1.40
2022-11-20T18:23:11.951Z,1.40
2022-11-20T18:25:44.293Z,1.40
2022-11-20T18:28:12.252Z,1.40
2022-11-20T18:30:40.570Z,1.40
2022-11-20T18:33:08.415Z,1.40
2022-11-20T18:35:44.929Z,1.40
2022-11-20T18:38:15.691Z,1.40
2022-11-20T18:40:44.554Z,1.40
2022-11-20T18:43:32.614Z,1.40
2022-11-20T18:46:16.837Z,1.40
2022-11-20T18:48:47.989Z,1.30
2022-11-20T18:51:17.376Z,1.36
2022-11-20T18:53:47.472Z,1.40
2022-11-20T18:56:17.504Z,1.30
2022-11-20T18:58:45.395Z,1.38
2022-11-20T19:01:13.663Z,1.40
2022-11-20T19:03:43.512Z,1.40
2022-11-20T19:06:16.477Z,1.40
2022-11-20T19:08:50.176Z,1.40
2022-11-20T19:11:19.312Z,1.30
2022-11-20T19:13:48.336Z,1.30
2022-11-20T19:16:22.607Z,1.32
2022-11-20T19:18:50.830Z,1.40
2022-11-20T19:21:25.748Z,1.36
2022-11-20T19:23:59.482Z,1.40
2022-11-20T19:26:31.497Z,1.40
2022-11-20T19:29:03.281Z,1.38
2022-11-20T19:31:35.302Z,1.40
2022-11-20T19:34:04.883Z,1.44
2022-11-20T19:36:43.170Z,1.50
2022-11-20T19:39:17.871Z,1.50
2022-11-20T19:41:48.333Z,1.60
2022-11-20T19:44:17.764Z,1.60
2022-11-20T19:46:48.257Z,1.60
2022-11-20T19:49:19.688Z,1.60
2022-11-20T19:51:51.380Z,1.58
2022-11-20T19:54:19.825Z,1.52
2022-11-20T19:56:58.525Z,1.50
2022-11-20T19:59:37.518Z,1.50
2022-11-20T20:02:07.763Z,1.40
2022-11-20T20:04:40.989Z,1.40
2022-11-20T20:07:09.529Z,1.40
2022-11-20T20:09:46.273Z,1.40
2022-11-20T20:12:16.227Z,1.40
2022-11-20T20:14:48.699Z,1.40
2022-11-20T20:17:17.273Z,1.40
2022-11-20T20:19:50.558Z,1.40
2022-11-20T20:22:21.008Z,1.30
2022-11-20T20:24:55.108Z,1.38
2022-11-20T20:27:25.024Z,1.36
2022-11-20T20:29:56.143Z,1.38
2022-11-20T20:32:25.117Z,1.40
2022-11-20T20:34:55.110Z,1.40
2022-11-20T20:37:23.966Z,1.36
2022-11-20T20:39:51.876Z,1.32
2022-11-20T20:42:21.802Z,1.30
2022-11-20T20:45:11.350Z,1.30
2022-11-20T20:47:43.115Z,1.32
2022-11-20T20:50:13.309Z,1.38
2022-11-20T20:52:47.776Z,1.40
2022-11-20T20:55:18.457Z,1.40
2022-11-20T20:57:48.384Z,1.38
2022-11-20T21:00:18.378Z,1.30
2022-11-20T21:02:50.805Z,1.30
2022-11-20T21:05:23.847Z,1.32
2022-11-20T21:08:13.742Z,1.36
2022-11-20T21:10:43.968Z,1.38
2022-11-20T21:13:13.371Z,1.34
2022-11-20T21:15:42.929Z,1.32
2022-11-20T21:18:12.528Z,1.40
2022-11-20T21:21:03.188Z,1.40
2022-11-20T21:23:36.399Z,1.40
2022-11-20T21:26:08.487Z,1.40
2022-11-20T21:28:38.254Z,1.40
2022-11-20T21:31:19.136Z,1.46
2022-11-20T21:33:53.530Z,1.50
2022-11-20T21:36:27.256Z,1.50
2022-11-20T21:38:59.823Z,1.50
2022-11-20T21:41:34.647Z,1.50
2022-11-20T21:44:30.010Z,1.50
2022-11-20T21:46:57.434Z,1.50
2022-11-20T21:49:28.531Z,1.50
2022-11-20T21:51:57.616Z,1.48
2022-11-20T21:54:28.775Z,1.40
2022-11-20T21:56:58.686Z,1.40
2022-11-20T21:59:28.857Z,1.40
2022-11-20T22:01:58.569Z,1.40
2022-11-20T22:04:27.700Z,1.40
2022-11-20T22:06:55.559Z,1.40
2022-11-20T22:09:23.763Z,1.40
2022-11-20T22:11:53.702Z,1.40
2022-11-20T22:14:23.827Z,1.40
2022-11-20T22:16:56.614Z,1.40
2022-11-20T22:19:24.759Z,1.40
2022-11-20T22:21:55.570Z,1.40
2022-11-20T22:24:28.527Z,1.38
2022-11-20T22:27:01.834Z,1.40
2022-11-20T22:29:31.764Z,1.40
2022-11-20T22:32:05.229Z,1.34
2022-11-20T22:34:34.544Z,1.36
2022-11-20T22:37:08.785Z,1.40
2022-11-20T22:39:38.798Z,1.40
2022-11-20T22:42:06.516Z,1.40
2022-11-20T22:44:42.579Z,1.40
2022-11-20T22:47:13.949Z,1.38
2022-11-20T22:49:42.676Z,1.40
2022-11-20T22:52:11.691Z,1.40
2022-11-20T22:54:41.213Z,1.40
2022-11-20T22:57:09.075Z,1.40
2022-11-20T22:59:38.821Z,1.36
2022-11-20T23:02:08.357Z,1.30
2022-11-20T23:04:36.728Z,1.30
2022-11-20T23:07:06.226Z,1.30
2022-11-20T23:09:34.298Z,1.30
2022-11-20T23:12:04.011Z,1.30
2022-11-20T23:14:32.593Z,1.30
2022-11-20T23:17:04.801Z,1.30
2022-11-20T23:19:35.373Z,1.30
2022-11-20T23:22:04.299Z,1.30
2022-11-20T23:24:33.759Z,1.20
2022-11-20T23:27:04.540Z,1.22
2022-11-20T23:29:32.477Z,1.22
2022-11-20T23:32:04.043Z,1.30
2022-11-20T23:34:37.387Z,1.28
2022-11-20T23:37:07.435Z,1.22
2022-11-20T23:39:35.439Z,1.20
2022-11-20T23:42:07.738Z,1.20
2022-11-20T23:44:36.985Z,1.30
2022-11-20T23:47:05.983Z,1.30
2022-11-20T23:49:40.163Z,1.30
2022-11-20T23:52:08.935Z,1.40
2022-11-20T23:54:37.979Z,1.40
2022-11-20T23:57:09.868Z,1.40
2022-11-20T23:59:38.814Z,1.40
